Time;durP1;ratioP1;P1;durP2;ratioP2;P2;SDS_P1;SDS_P2;PMS_P1;PMS_P2;Temp;Humidity;BMP_temperature;BMP_pressure;BME280_temperature;BME280_humidity;BME280_pressure;Samples;Min_cycle;Max_cycle;Signal;HPM_P1;HPM_P2
2023/10/01 00:02:06;;;;;;;0.00;0.00;;;17.10;47.60;;;;;;5071063;28;20295;-46
2023/10/01 00:04:37;;;;;;;0.00;0.00;;;17.20;47.60;;;;;;5070463;28;20240;-46
2023/10/01 00:07:08;;;;;;;0.08;0.08;;;17.20;47.40;;;;;;5063235;28;20237;-46
2023/10/01 00:09:38;;;;;;;0.00;0.00;;;17.20;47.30;;;;;;5070609;28;20202;-46
2023/10/01 00:12:10;;;;;;;0.00;0.00;;;17.30;47.30;;;;;;5053439;28;20222;-46
2023/10/01 00:14:43;;;;;;;0.10;0.10;;;17.30;47.20;;;;;;5071129;28;20674;-46
2023/10/01 00:17:14;;;;;;;0.00;0.00;;;17.40;47.10;;;;;;5062257;28;20737;-47
2023/10/01 00:19:45;;;;;;;0.00;0.00;;;17.40;47.20;;;;;;5065711;28;20203;-46
2023/10/01 00:22:17;;;;;;;0.00;0.00;;;17.40;47.30;;;;;;5053948;28;20206;-46
2023/10/01 00:24:48;;;;;;;0.00;0.00;;;17.50;47.10;;;;;;5071092;28;20642;-45
2023/10/01 00:27:19;;;;;;;0.00;0.00;;;17.50;46.80;;;;;;5070615;28;20193;-46
2023/10/01 00:29:52;;;;;;;0.00;0.00;;;17.50;47.60;;;;;;5070830;28;20651;-46
2023/10/01 00:32:23;;;;;;;0.08;0.08;;;17.60;47.00;;;;;;5070200;28;20236;-46
2023/10/01 00:34:53;;;;;;;0.00;0.00;;;17.70;47.10;;;;;;5056439;28;20234;-46
2023/10/01 00:37:24;;;;;;;0.10;0.10;;;17.70;47.00;;;;;;5053941;28;20199;-47
2023/10/01 00:39:56;;;;;;;0.00;0.00;;;17.70;47.10;;;;;;5068841;28;20222;-46
2023/10/01 00:42:28;;;;;;;0.00;0.00;;;17.70;47.00;;;;;;5054265;28;20769;-45
2023/10/01 00:45:01;;;;;;;0.10;0.10;;;17.80;47.00;;;;;;5071474;28;20190;-45
2023/10/01 00:47:32;;;;;;;0.00;0.00;;;17.80;47.00;;;;;;5055388;28;20203;-45
2023/10/01 00:50:05;;;;;;;0.10;0.10;;;17.90;47.00;;;;;;5031322;28;20204;-44
2023/10/01 00:52:37;;;;;;;0.00;0.00;;;17.90;46.90;;;;;;5040389;28;20215;-46
2023/10/01 00:55:09;;;;;;;0.00;0.00;;;17.90;46.90;;;;;;5070033;28;20198;-45
2023/10/01 00:57:40;;;;;;;0.00;0.00;;;18.00;46.90;;;;;;5071056;28;20193;-46
2023/10/01 01:00:19;;;;;;;0.08;0.08;;;18.00;46.90;;;;;;5070043;28;20274;-45
2023/10/01 01:03:00;;;;;;;0.08;0.08;;;18.10;47.40;;;;;;5042241;28;20203;-46
2023/10/01 01:05:37;;;;;;;0.00;0.00;;;18.10;46.90;;;;;;5070293;28;20191;-45
2023/10/01 01:08:20;;;;;;;0.00;0.00;;;18.10;46.90;;;;;;5066112;28;20198;-47
2023/10/01 01:10:53;;;;;;;0.10;0.10;;;18.20;46.90;;;;;;5030260;28;20287;-46
2023/10/01 01:13:25;;;;;;;0.00;0.00;;;18.20;47.00;;;;;;5044118;28;20211;-44
2023/10/01 01:16:00;;;;;;;0.00;0.00;;;18.20;47.00;;;;;;5033441;28;20488;-45
2023/10/01 01:18:34;;;;;;;0.10;0.10;;;18.30;47.20;;;;;;5061016;28;20281;-46
2023/10/01 01:21:09;;;;;;;0.00;0.00;;;18.30;47.20;;;;;;5070578;28;20207;-45
2023/10/01 01:23:45;;;;;;;0.00;0.00;;;18.40;46.70;;;;;;5067366;28;20221;-46
2023/10/01 01:26:20;;;;;;;0.10;0.10;;;18.40;46.80;;;;;;5071997;28;20571;-45
2023/10/01 01:28:51;;;;;;;0.00;0.00;;;18.40;46.80;;;;;;5064648;28;20282;-47
2023/10/01 01:31:27;;;;;;;0.00;0.00;;;18.50;46.90;;;;;;5053866;28;20271;-44
2023/10/01 01:33:57;;;;;;;0.00;0.00;;;18.50;46.90;;;;;;5067258;28;20720;-44
2023/10/01 01:36:30;;;;;;;0.00;0.00;;;18.50;46.90;;;;;;5073910;28;20224;-45
2023/10/01 01:39:26;;;;;;;0.00;0.00;;;18.60;47.10;;;;;;5072750;28;20190;-46
2023/10/01 01:41:57;;;;;;;0.00;0.00;;;18.60;47.00;;;;;;5054419;28;20208;-45
2023/10/01 01:44:28;;;;;;;0.00;0.00;;;18.70;47.00;;;;;;5070910;28;20230;-45
2023/10/01 01:47:01;;;;;;;0.00;0.00;;;18.70;46.90;;;;;;5062978;28;20199;-46
2023/10/01 01:49:32;;;;;;;0.00;0.00;;;18.70;47.00;;;;;;5072028;28;20222;-44
2023/10/01 01:52:03;;;;;;;0.00;0.00;;;18.80;47.00;;;;;;5073352;28;20221;-46
2023/10/01 01:54:39;;;;;;;0.08;0.08;;;18.80;47.00;;;;;;5073173;28;20191;-45
2023/10/01 01:57:13;;;;;;;0.00;0.00;;;18.90;47.10;;;;;;5034061;28;20204;-46
2023/10/01 01:59:44;;;;;;;0.00;0.00;;;18.90;47.10;;;;;;5071242;28;20230;-46
2023/10/01 02:02:15;;;;;;;0.00;0.00;;;19.00;47.10;;;;;;5073050;28;20218;-45
2023/10/01 02:07:50;;;;;;;0.00;0.00;;;19.00;47.10;;;;;;5087364;27;20537;-44
2023/10/01 02:10:21;;;;;;;0.00;0.00;;;19.10;47.00;;;;;;5074786;28;20646;-48
2023/10/01 02:12:54;;;;;;;0.10;0.10;;;19.10;46.40;;;;;;5070841;28;20214;-45
2023/10/01 02:15:25;;;;;;;0.00;0.00;;;19.20;45.80;;;;;;5088388;28;20199;-46
2023/10/01 02:17:57;;;;;;;0.00;0.00;;;19.20;45.80;;;;;;5073686;28;20713;-46
2023/10/01 02:20:28;;;;;;;0.00;0.00;;;19.20;46.00;;;;;;5088460;28;20248;-47
2023/10/01 02:23:02;;;;;;;0.00;0.00;;;19.30;46.10;;;;;;5089785;28;20222;-47
2023/10/01 02:25:39;;;;;;;0.00;0.00;;;19.30;46.10;;;;;;5108118;28;20403;-46
2023/10/01 02:28:11;;;;;;;0.00;0.00;;;19.40;46.10;;;;;;5108749;28;20194;-46
2023/10/01 02:30:44;;;;;;;0.00;0.00;;;19.40;46.20;;;;;;5108077;28;20193;-46
2023/10/01 02:33:18;;;;;;;0.00;0.00;;;19.50;46.40;;;;;;5108417;28;20293;-46
2023/10/01 02:35:55;;;;;;;0.00;0.00;;;19.50;46.60;;;;;;5089636;28;20642;-45
2023/10/01 02:38:43;;;;;;;0.10;0.10;;;19.50;46.60;;;;;;5073594;28;20273;-46
2023/10/01 02:41:15;;;;;;;0.00;0.00;;;19.60;46.70;;;;;;5073017;28;20203;-46
2023/10/01 02:43:45;;;;;;;0.00;0.00;;;19.60;46.70;;;;;;5075860;28;20289;-45
2023/10/01 02:46:15;;;;;;;0.00;0.00;;;19.70;46.60;;;;;;5083866;28;20223;-47
2023/10/01 02:48:47;;;;;;;0.00;0.00;;;19.70;46.70;;;;;;5075043;28;20657;-46
2023/10/01 02:51:17;;;;;;;0.00;0.00;;;19.80;46.80;;;;;;5042166;23;20235;-59
2023/10/01 02:56:37;;;;;;;0.10;0.10;;;19.90;46.90;;;;;;5047092;28;20199;-52
2023/10/01 02:59:12;;;;;;;0.00;0.00;;;19.90;46.90;;;;;;5036953;28;20195;-59
2023/10/01 03:01:46;;;;;;;0.03;0.03;;;19.90;46.90;;;;;;5027308;28;20196;-52
2023/10/01 03:04:16;;;;;;;0.00;0.00;;;20.00;46.80;;;;;;5026874;28;20203;-55
2023/10/01 03:06:52;;;;;;;0.03;0.03;;;20.10;46.90;;;;;;5025963;28;20752;-56
2023/10/01 03:09:31;;;;;;;0.00;0.00;;;20.10;46.90;;;;;;5027102;28;20219;-62
2023/10/01 03:15:00;;;;;;;0.00;0.00;;;20.20;46.90;;;;;;5027307;28;20203;-53
2023/10/01 03:17:35;;;;;;;0.00;0.00;;;20.20;46.90;;;;;;5021980;28;20255;-59
2023/10/01 03:20:17;;;;;;;0.00;0.00;;;20.20;46.80;;;;;;5013384;28;20196;-59
2023/10/01 03:22:53;;;;;;;0.00;0.00;;;20.30;46.80;;;;;;5014226;28;20623;-56
2023/10/01 03:25:28;;;;;;;0.05;0.05;;;20.30;46.70;;;;;;5014169;28;20586;-53
2023/10/01 03:28:00;;;;;;;0.00;0.00;;;20.40;46.70;;;;;;5013386;28;20219;-53
2023/10/01 03:30:34;;;;;;;0.00;0.00;;;20.40;46.70;;;;;;5013295;28;20205;-50
2023/10/01 03:33:08;;;;;;;0.00;0.00;;;20.50;46.70;;;;;;5013761;28;20221;-59
2023/10/01 03:35:42;;;;;;;0.00;0.00;;;20.50;46.70;;;;;;4994715;28;20247;-58
2023/10/01 03:38:14;;;;;;;0.00;0.00;;;20.60;46.70;;;;;;5010048;28;20204;-59
2023/10/01 03:43:35;;;;;;;0.00;0.00;;;20.60;46.60;;;;;;5024276;28;20220;-58
2023/10/01 03:46:13;;;;;;;0.00;0.00;;;20.60;46.60;;;;;;5012763;28;20221;-57
2023/10/01 03:54:16;;;;;;;0.00;0.00;;;20.70;46.30;;;;;;4993080;28;20243;-46
2023/10/01 03:57:00;;;;;;;0.00;0.00;;;20.80;46.30;;;;;;4993711;28;20739;-46
2023/10/01 03:59:32;;;;;;;0.10;0.10;;;20.80;46.20;;;;;;4993664;28;20200;-46
2023/10/01 04:02:07;;;;;;;0.00;0.00;;;20.80;46.20;;;;;;4993125;28;20285;-46
2023/10/01 04:04:56;;;;;;;0.00;0.00;;;20.80;46.10;;;;;;4992876;28;20189;-46
2023/10/01 04:07:40;;;;;;;0.00;0.00;;;20.90;46.10;;;;;;4993054;28;20229;-47
2023/10/01 04:10:14;;;;;;;0.00;0.00;;;20.90;46.10;;;;;;4993823;28;20200;-46
2023/10/01 04:12:49;;;;;;;0.00;0.00;;;20.90;46.10;;;;;;4993107;28;20217;-47
2023/10/01 04:15:30;;;;;;;0.10;0.10;;;20.90;46.00;;;;;;4993721;28;20664;-46
2023/10/01 04:21:24;;;;;;;0.00;0.00;;;20.90;46.00;;;;;;4993522;28;20201;-46
2023/10/01 04:23:47;;;;;;;0.00;0.00;;;20.90;46.10;;;;;;4975232;28;20214;-45
2023/10/01 04:26:19;;;;;;;0.00;0.00;;;20.90;46.10;;;;;;4993228;28;20279;-45
2023/10/01 04:28:54;;;;;;;0.10;0.10;;;20.90;46.00;;;;;;4992226;28;20757;-45
2023/10/01 04:34:11;;;;;;;0.00;0.00;;;20.90;46.30;;;;;;4991591;28;20218;-46
2023/10/01 04:36:42;;;;;;;0.00;0.00;;;21.00;46.40;;;;;;4993268;28;20760;-47
2023/10/01 04:39:13;;;;;;;0.00;0.00;;;21.00;46.40;;;;;;4992942;28;20244;-46
2023/10/01 04:41:45;;;;;;;0.00;0.00;;;21.00;46.40;;;;;;4976222;28;20555;-45
2023/10/01 04:44:19;;;;;;;0.00;0.00;;;21.00;46.40;;;;;;4979079;28;20624;-47
2023/10/01 04:46:51;;;;;;;0.10;0.10;;;21.00;46.50;;;;;;4991267;28;20312;-45
2023/10/01 04:49:39;;;;;;;0.00;0.00;;;21.00;46.60;;;;;;5005350;23;20193;-51
2023/10/01 04:52:12;;;;;;;0.05;0.05;;;21.10;46.40;;;;;;4973214;28;20217;-54
2023/10/01 04:54:44;;;;;;;0.10;0.10;;;21.10;46.40;;;;;;4973248;28;20202;-55
2023/10/01 04:57:16;;;;;;;0.00;0.00;;;21.10;46.40;;;;;;4972611;28;20413;-59
2023/10/01 04:59:58;;;;;;;0.08;0.08;;;21.10;46.40;;;;;;4972301;28;20221;-55
2023/10/01 05:02:32;;;;;;;0.00;0.00;;;21.10;46.40;;;;;;4971938;28;20582;-59
2023/10/01 05:05:11;;;;;;;0.00;0.00;;;21.00;46.40;;;;;;4972193;28;20285;-55
2023/10/01 05:07:42;;;;;;;0.00;0.00;;;21.10;46.40;;;;;;4972504;28;20265;-51
2023/10/01 05:10:13;;;;;;;0.00;0.00;;;21.00;46.40;;;;;;4971765;28;20209;-60
2023/10/01 05:12:45;;;;;;;0.05;0.05;;;21.10;46.40;;;;;;4972334;28;20229;-49
2023/10/01 05:15:25;;;;;;;0.10;0.10;;;21.10;46.40;;;;;;4981312;28;20654;-56
2023/10/01 05:17:56;;;;;;;0.00;0.00;;;21.00;46.40;;;;;;4975443;28;20240;-53
2023/10/01 05:20:27;;;;;;;0.00;0.00;;;21.00;46.50;;;;;;4972396;28;20285;-48
2023/10/01 05:23:02;;;;;;;0.00;0.00;;;21.00;46.50;;;;;;4972271;28;20325;-50
2023/10/01 05:25:32;;;;;;;0.00;0.00;;;21.00;46.50;;;;;;4971788;28;20276;-47
2023/10/01 05:28:03;;;;;;;0.00;0.00;;;21.00;46.40;;;;;;4972758;28;20232;-53
2023/10/01 05:30:53;;;;;;;0.00;0.00;;;21.00;46.30;;;;;;4971265;28;20258;-48
2023/10/01 05:33:24;;;;;;;0.00;0.00;;;21.10;46.30;;;;;;4972261;28;20728;-52
2023/10/01 05:35:57;;;;;;;0.00;0.00;;;21.00;46.20;;;;;;4972428;28;20693;-64
2023/10/01 05:38:28;;;;;;;0.00;0.00;;;21.00;46.10;;;;;;4971896;28;20252;-59
2023/10/01 05:41:00;;;;;;;0.10;0.10;;;21.00;45.50;;;;;;4974431;28;20194;-59
2023/10/01 05:43:35;;;;;;;0.00;0.00;;;21.00;44.80;;;;;;4971806;28;20237;-57
2023/10/01 05:46:10;;;;;;;0.00;0.00;;;20.90;44.50;;;;;;4972318;28;20201;-57
2023/10/01 05:48:43;;;;;;;0.00;0.00;;;20.90;44.60;;;;;;4972166;28;20260;-46
2023/10/01 05:51:15;;;;;;;0.00;0.00;;;20.90;44.80;;;;;;5016549;23;20240;-45
2023/10/01 05:53:45;;;;;;;0.00;0.00;;;20.80;44.90;;;;;;5010607;28;20216;-45
2023/10/01 05:56:17;;;;;;;0.00;0.00;;;20.80;45.00;;;;;;5011014;28;20197;-45
2023/10/01 05:58:48;;;;;;;0.00;0.00;;;20.80;45.10;;;;;;5011415;28;20275;-45
2023/10/01 06:01:21;;;;;;;0.10;0.10;;;20.90;45.20;;;;;;5011449;28;20189;-46
2023/10/01 06:03:55;;;;;;;0.00;0.00;;;20.80;45.30;;;;;;5011206;28;20307;-46
2023/10/01 06:06:26;;;;;;;0.00;0.00;;;20.80;45.00;;;;;;5000130;28;20198;-45
2023/10/01 06:09:09;;;;;;;0.03;0.03;;;20.80;44.70;;;;;;5008179;28;20604;-45
2023/10/01 06:11:48;;;;;;;0.05;0.05;;;20.80;44.80;;;;;;4991625;28;20208;-46
2023/10/01 06:14:36;;;;;;;0.08;0.08;;;20.80;44.90;;;;;;4992223;28;20205;-45
2023/10/01 06:17:10;;;;;;;0.00;0.00;;;20.80;45.10;;;;;;5010338;28;20212;-47
2023/10/01 06:19:42;;;;;;;0.00;0.00;;;20.80;45.20;;;;;;5010049;28;20188;-46
2023/10/01 06:22:22;;;;;;;0.00;0.00;;;20.80;45.20;;;;;;5009982;28;20699;-47
2023/10/01 06:24:54;;;;;;;0.00;0.00;;;20.80;45.30;;;;;;5010678;28;20200;-46
2023/10/01 06:27:25;;;;;;;0.00;0.00;;;20.80;45.30;;;;;;5010595;28;20228;-46
2023/10/01 06:30:00;;;;;;;0.10;0.10;;;20.70;45.30;;;;;;5011536;28;20201;-47
2023/10/01 06:32:33;;;;;;;0.00;0.00;;;20.70;45.30;;;;;;5010541;28;20219;-46
2023/10/01 06:35:05;;;;;;;0.00;0.00;;;20.70;45.20;;;;;;5011542;28;20661;-47
2023/10/01 06:37:50;;;;;;;0.00;0.00;;;20.70;45.20;;;;;;5011682;28;20246;-45
2023/10/01 06:40:33;;;;;;;0.10;0.10;;;20.70;45.20;;;;;;5011282;28;20247;-45
2023/10/01 06:43:06;;;;;;;0.10;0.10;;;20.70;45.20;;;;;;5008915;28;20213;-47
2023/10/01 06:45:44;;;;;;;0.00;0.00;;;20.70;45.30;;;;;;5011352;28;20236;-44
2023/10/01 06:48:24;;;;;;;0.00;0.00;;;20.70;45.30;;;;;;5010694;28;20224;-46
2023/10/01 06:50:56;;;;;;;0.00;0.00;;;20.70;45.40;;;;;;5011557;28;20209;-45
2023/10/01 06:53:43;;;;;;;0.00;0.00;;;20.70;45.50;;;;;;5012524;28;20312;-46
2023/10/01 06:56:17;;;;;;;0.08;0.08;;;20.70;45.50;;;;;;5014740;28;20197;-47
2023/10/01 06:59:12;;;;;;;0.00;0.00;;;20.70;45.60;;;;;;5014961;28;20251;-45
2023/10/01 07:01:47;;;;;;;0.05;0.05;;;20.70;45.60;;;;;;5014358;28;20197;-45
2023/10/01 07:04:23;;;;;;;0.00;0.00;;;20.70;45.60;;;;;;5013990;28;20200;-45
2023/10/01 07:06:54;;;;;;;0.00;0.00;;;20.70;45.60;;;;;;5014091;28;20201;-47
2023/10/01 07:09:35;;;;;;;0.00;0.00;;;20.70;45.60;;;;;;5014245;28;20448;-45
2023/10/01 07:12:09;;;;;;;0.00;0.00;;;20.70;45.70;;;;;;5014085;28;20213;-48
2023/10/01 07:14:43;;;;;;;0.00;0.00;;;20.70;45.60;;;;;;5014273;28;20200;-46
2023/10/01 07:17:18;;;;;;;0.00;0.00;;;20.70;45.60;;;;;;5013569;28;21035;-46
2023/10/01 07:20:02;;;;;;;0.00;0.00;;;20.70;45.60;;;;;;5013799;28;20185;-46
2023/10/01 07:22:38;;;;;;;0.00;0.00;;;20.70;45.60;;;;;;5014154;28;20263;-46
2023/10/01 07:25:28;;;;;;;0.00;0.00;;;20.70;45.60;;;;;;5013903;28;20200;-46
2023/10/01 07:28:01;;;;;;;0.00;0.00;;;20.70;45.60;;;;;;5013677;28;20308;-46
2023/10/01 07:30:45;;;;;;;0.00;0.00;;;20.70;45.60;;;;;;5013793;28;20196;-47
2023/10/01 07:33:18;;;;;;;0.03;0.03;;;20.60;45.60;;;;;;5012949;28;20256;-46
2023/10/01 07:36:01;;;;;;;0.00;0.00;;;20.60;46.20;;;;;;5013595;28;20197;-47
2023/10/01 07:38:48;;;;;;;0.10;0.10;;;20.60;45.70;;;;;;5012614;28;20287;-45
2023/10/01 07:41:22;;;;;;;0.00;0.00;;;20.60;45.70;;;;;;5013312;28;20197;-44
2023/10/01 07:43:55;;;;;;;0.00;0.00;;;20.60;45.70;;;;;;5013381;28;20221;-47
2023/10/01 07:46:28;;;;;;;0.05;0.05;;;20.60;45.70;;;;;;5014103;28;20413;-47
2023/10/01 07:49:01;;;;;;;0.00;0.00;;;20.60;45.80;;;;;;5013213;28;20311;-46
2023/10/01 07:51:38;;;;;;;0.00;0.00;;;20.60;45.80;;;;;;5009125;23;20799;-50
2023/10/01 07:54:13;;;;;;;0.05;0.05;;;20.60;45.80;;;;;;4994223;28;20228;-59
2023/10/01 07:56:51;;;;;;;0.00;0.00;;;20.60;45.80;;;;;;4993958;28;20229;-51
2023/10/01 07:59:33;;;;;;;0.00;0.00;;;20.60;45.80;;;;;;4993959;28;20197;-59
2023/10/01 08:02:19;;;;;;;0.10;0.10;;;20.60;45.80;;;;;;4993644;28;20208;-54
2023/10/01 08:05:08;;;;;;;0.10;0.10;;;20.60;45.80;;;;;;4994074;28;20291;-48
2023/10/01 08:07:45;;;;;;;0.00;0.00;;;20.60;45.80;;;;;;4994042;28;20231;-50
2023/10/01 08:10:20;;;;;;;0.10;0.10;;;20.60;45.80;;;;;;4993855;28;20196;-56
2023/10/01 08:13:08;;;;;;;0.00;0.00;;;20.50;45.80;;;;;;4993892;28;20228;-49
2023/10/01 08:15:57;;;;;;;0.00;0.00;;;20.50;45.90;;;;;;4992622;28;20292;-54
2023/10/01 08:18:36;;;;;;;0.00;0.00;;;20.50;45.90;;;;;;4993951;28;20201;-52
2023/10/01 08:21:15;;;;;;;0.00;0.00;;;20.50;46.60;;;;;;4993924;28;20338;-60
2023/10/01 08:23:54;;;;;;;0.00;0.00;;;20.50;46.00;;;;;;4993770;28;20217;-53
2023/10/01 08:26:43;;;;;;;0.03;0.03;;;20.50;46.00;;;;;;4993887;28;20585;-51
2023/10/01 08:29:16;;;;;;;0.00;0.00;;;20.50;46.10;;;;;;4993488;28;20229;-49
2023/10/01 08:35:01;;;;;;;0.00;0.00;;;20.50;46.10;;;;;;4987919;28;20243;-55
2023/10/01 08:37:31;;;;;;;0.00;0.00;;;20.50;46.10;;;;;;4992567;28;20194;-51
2023/10/01 08:40:04;;;;;;;0.00;0.00;;;20.50;46.10;;;;;;4992998;28;20197;-55
2023/10/01 08:42:34;;;;;;;0.00;0.00;;;20.50;46.10;;;;;;4992866;28;20213;-53
2023/10/01 08:45:06;;;;;;;0.00;0.00;;;20.50;46.10;;;;;;4993002;28;20197;-53
2023/10/01 08:47:37;;;;;;;0.00;0.00;;;20.50;46.80;;;;;;4992316;28;20313;-62
2023/10/01 08:50:26;;;;;;;0.00;0.00;;;20.50;46.20;;;;;;5015130;23;20234;-48
2023/10/01 08:53:02;;;;;;;0.00;0.00;;;20.50;46.20;;;;;;5022676;28;20302;-46
2023/10/01 08:56:04;;;;;;;0.00;0.00;;;20.50;46.20;;;;;;5011164;28;20232;-44
2023/10/01 08:58:48;;;;;;;0.00;0.00;;;20.40;46.20;;;;;;5011762;28;20228;-45
2023/10/01 09:01:21;;;;;;;0.00;0.00;;;20.40;46.20;;;;;;5011483;28;20204;-45
2023/10/01 09:03:55;;;;;;;0.00;0.00;;;20.40;46.20;;;;;;5012151;28;20220;-46
2023/10/01 09:06:58;;;;;;;0.08;0.08;;;20.40;46.30;;;;;;5012073;28;20188;-45
2023/10/01 09:09:51;;;;;;;0.00;0.00;;;20.40;46.30;;;;;;5011630;28;20236;-45
2023/10/01 09:12:22;;;;;;;0.00;0.00;;;20.40;46.30;;;;;;5011386;28;20335;-45
2023/10/01 09:14:53;;;;;;;0.00;0.00;;;20.40;46.30;;;;;;5011910;28;20203;-44
2023/10/01 09:17:27;;;;;;;0.00;0.00;;;20.40;46.40;;;;;;5011414;28;20197;-46
2023/10/01 09:20:06;;;;;;;0.00;0.00;;;20.40;46.40;;;;;;5012050;28;20206;-46
2023/10/01 09:22:43;;;;;;;0.10;0.10;;;20.40;46.40;;;;;;5011419;28;20212;-46
2023/10/01 09:25:21;;;;;;;0.05;0.05;;;20.40;46.40;;;;;;5010895;28;20196;-45
2023/10/01 09:28:03;;;;;;;0.00;0.00;;;20.40;46.40;;;;;;5011102;28;20303;-45
2023/10/01 09:30:47;;;;;;;0.00;0.00;;;20.40;46.40;;;;;;5011324;28;20224;-44
2023/10/01 09:33:27;;;;;;;0.00;0.00;;;20.40;46.40;;;;;;5028163;28;20773;-44
2023/10/01 09:35:59;;;;;;;0.00;0.00;;;20.30;46.30;;;;;;5031488;28;20196;-46
2023/10/01 09:38:30;;;;;;;0.00;0.00;;;20.30;46.30;;;;;;5023559;28;20243;-46
2023/10/01 09:41:02;;;;;;;0.00;0.00;;;20.30;46.40;;;;;;5011535;28;20200;-45
2023/10/01 09:43:37;;;;;;;0.03;0.03;;;20.30;46.40;;;;;;5011026;28;20600;-44
2023/10/01 09:46:10;;;;;;;0.00;0.00;;;20.30;46.40;;;;;;5009856;28;20204;-46
2023/10/01 09:48:48;;;;;;;0.00;0.00;;;20.30;46.40;;;;;;5031389;28;20224;-46
2023/10/01 09:51:20;;;;;;;0.00;0.00;;;20.30;46.40;;;;;;5031408;28;20257;-47
2023/10/01 09:53:55;;;;;;;0.00;0.00;;;20.30;46.50;;;;;;5011827;28;20220;-46
2023/10/01 09:56:38;;;;;;;0.00;0.00;;;20.30;46.40;;;;;;5011191;28;20200;-46
2023/10/01 09:59:12;;;;;;;0.00;0.00;;;20.30;46.50;;;;;;5011632;28;20208;-46
2023/10/01 10:01:45;;;;;;;0.00;0.00;;;20.30;46.50;;;;;;5010430;28;20248;-46
2023/10/01 10:04:19;;;;;;;0.00;0.00;;;20.30;46.50;;;;;;5010162;28;20263;-45
2023/10/01 10:06:59;;;;;;;0.00;0.00;;;20.30;46.50;;;;;;5010297;28;20594;-45
2023/10/01 10:09:31;;;;;;;0.00;0.00;;;20.30;46.50;;;;;;5010333;28;20776;-45
2023/10/01 10:12:07;;;;;;;0.00;0.00;;;20.30;46.50;;;;;;5011658;28;20637;-45
2023/10/01 10:14:58;;;;;;;0.00;0.00;;;20.30;46.50;;;;;;5011190;28;20279;-47
2023/10/01 10:17:38;;;;;;;0.00;0.00;;;20.30;46.60;;;;;;5010908;28;20264;-46
2023/10/01 10:20:31;;;;;;;0.00;0.00;;;20.30;46.50;;;;;;5010887;28;20200;-46
2023/10/01 10:23:21;;;;;;;0.00;0.00;;;20.30;46.60;;;;;;5011053;28;20221;-46
2023/10/01 10:25:56;;;;;;;0.00;0.00;;;20.20;46.60;;;;;;5010478;28;20203;-46
2023/10/01 10:28:55;;;;;;;0.00;0.00;;;20.20;46.50;;;;;;5012773;28;20306;-46
2023/10/01 10:31:35;;;;;;;0.10;0.10;;;20.20;46.60;;;;;;5014651;28;20283;-46
2023/10/01 10:34:36;;;;;;;0.00;0.00;;;20.20;46.60;;;;;;5006062;28;20220;-46
2023/10/01 10:37:08;;;;;;;0.00;0.00;;;20.20;46.60;;;;;;5014594;28;20243;-46
2023/10/01 10:40:04;;;;;;;0.00;0.00;;;20.20;46.70;;;;;;5014948;28;20780;-44
2023/10/01 10:42:35;;;;;;;0.00;0.00;;;20.20;46.70;;;;;;4966211;28;20693;-46
2023/10/01 10:45:21;;;;;;;0.00;0.00;;;20.20;46.70;;;;;;5012505;28;20193;-45
2023/10/01 10:48:02;;;;;;;0.00;0.00;;;20.20;46.70;;;;;;5014235;28;20657;-46
2023/10/01 10:50:45;;;;;;;0.10;0.10;;;20.20;46.70;;;;;;5015095;28;20316;-46
2023/10/01 10:53:20;;;;;;;0.10;0.10;;;20.20;46.70;;;;;;5011604;28;20606;-45
2023/10/01 10:56:02;;;;;;;0.08;0.08;;;20.20;46.70;;;;;;5013967;28;20732;-46
2023/10/01 10:58:37;;;;;;;0.00;0.00;;;20.20;46.70;;;;;;5014285;28;20193;-45
2023/10/01 11:01:20;;;;;;;0.00;0.00;;;20.20;46.70;;;;;;5014284;28;20188;-45
2023/10/01 11:03:54;;;;;;;0.00;0.00;;;20.20;46.70;;;;;;5014062;28;20716;-45
2023/10/01 11:06:29;;;;;;;0.00;0.00;;;20.10;46.60;;;;;;5014722;28;20625;-45
2023/10/01 11:09:03;;;;;;;0.00;0.00;;;20.20;46.70;;;;;;5012257;28;20304;-46
2023/10/01 11:11:41;;;;;;;0.00;0.00;;;20.20;46.70;;;;;;5014421;28;20193;-46
2023/10/01 11:14:16;;;;;;;0.10;0.10;;;20.20;46.80;;;;;;5014289;28;20611;-45
2023/10/01 11:16:47;;;;;;;0.00;0.00;;;20.10;46.70;;;;;;5014102;28;20243;-45
2023/10/01 11:19:25;;;;;;;0.00;0.00;;;20.20;46.80;;;;;;5011595;28;20606;-45
2023/10/01 11:22:02;;;;;;;0.00;0.00;;;20.10;46.80;;;;;;5011132;28;20193;-45
2023/10/01 11:24:35;;;;;;;0.00;0.00;;;20.10;46.80;;;;;;5013924;28;20192;-47
2023/10/01 11:27:22;;;;;;;0.00;0.00;;;20.10;46.80;;;;;;5014252;28;20609;-47
2023/10/01 11:30:16;;;;;;;0.00;0.00;;;20.10;46.80;;;;;;5014154;28;20331;-46
2023/10/01 11:33:12;;;;;;;0.00;0.00;;;20.10;46.80;;;;;;5014398;28;20217;-45
2023/10/01 11:36:06;;;;;;;0.00;0.00;;;20.10;46.80;;;;;;5014789;28;20722;-43
2023/10/01 11:38:39;;;;;;;0.10;0.10;;;20.10;46.70;;;;;;5014142;28;20259;-45
2023/10/01 11:41:11;;;;;;;0.00;0.00;;;20.10;46.80;;;;;;5013883;28;20555;-46
2023/10/01 11:43:42;;;;;;;0.00;0.00;;;20.10;46.80;;;;;;5014280;28;20256;-46
2023/10/01 11:46:23;;;;;;;0.00;0.00;;;20.10;46.80;;;;;;5014158;28;20674;-45
2023/10/01 11:48:57;;;;;;;0.00;0.00;;;20.10;46.80;;;;;;5014185;28;20282;-46
2023/10/01 11:51:38;;;;;;;0.00;0.00;;;20.10;46.80;;;;;;5014447;28;20196;-46
2023/10/01 11:54:11;;;;;;;0.08;0.08;;;20.10;46.80;;;;;;5014086;28;20247;-48
2023/10/01 11:56:44;;;;;;;0.00;0.00;;;20.10;46.80;;;;;;5014282;28;20204;-46
2023/10/01 11:59:22;;;;;;;0.00;0.00;;;20.10;46.80;;;;;;5014226;28;20207;-46
2023/10/01 12:01:56;;;;;;;0.00;0.00;;;20.10;46.80;;;;;;5014057;28;20201;-45
2023/10/01 12:07:19;;;;;;;0.05;0.05;;;20.00;46.80;;;;;;5013509;28;20787;-44
2023/10/01 12:09:51;;;;;;;0.00;0.00;;;20.00;46.80;;;;;;5013247;28;20228;-46
2023/10/01 12:12:25;;;;;;;0.00;0.00;;;20.00;46.80;;;;;;5013817;28;20208;-45
2023/10/01 12:14:56;;;;;;;0.00;0.00;;;20.00;46.80;;;;;;5013806;28;20203;-45
2023/10/01 12:17:28;;;;;;;0.00;0.00;;;20.00;46.90;;;;;;5012788;28;20196;-45
2023/10/01 12:20:00;;;;;;;0.00;0.00;;;20.00;46.90;;;;;;5012638;28;20193;-45
2023/10/01 12:22:34;;;;;;;0.00;0.00;;;20.00;46.90;;;;;;5012463;28;20248;-46
2023/10/01 12:25:05;;;;;;;0.00;0.00;;;20.10;46.90;;;;;;5010557;28;20188;-46
2023/10/01 12:30:31;;;;;;;0.00;0.00;;;20.00;46.90;;;;;;5012705;28;20224;-46
2023/10/01 12:33:03;;;;;;;0.00;0.00;;;20.00;46.90;;;;;;5012987;28;20692;-46
2023/10/01 12:35:36;;;;;;;0.05;0.05;;;20.00;46.80;;;;;;5013376;28;20197;-45
2023/10/01 12:40:55;;;;;;;0.10;0.10;;;20.00;46.80;;;;;;5010890;28;20270;-46
2023/10/01 12:46:18;;;;;;;0.05;0.05;;;20.00;47.50;;;;;;4992467;28;20197;-45
2023/10/01 12:51:38;;;;;;;0.00;0.00;;;20.00;46.90;;;;;;5005286;28;20201;-46
2023/10/01 12:54:09;;;;;;;0.00;0.00;;;20.00;47.00;;;;;;5012597;28;20221;-45
2023/10/01 12:57:02;;;;;;;0.00;0.00;;;20.00;47.00;;;;;;5012888;28;20250;-46
2023/10/01 12:59:38;;;;;;;0.00;0.00;;;20.00;47.00;;;;;;5012640;28;20193;-45
2023/10/01 13:02:22;;;;;;;0.10;0.10;;;20.00;47.00;;;;;;5012458;28;20666;-46
2023/10/01 13:05:16;;;;;;;0.10;0.10;;;20.00;47.00;;;;;;5012526;28;20652;-46
2023/10/01 13:07:45;;;;;;;0.00;0.00;;;20.00;47.00;;;;;;5012233;28;20288;-44
2023/10/01 13:10:20;;;;;;;0.10;0.10;;;20.00;47.00;;;;;;5012421;28;20228;-45
2023/10/01 13:12:56;;;;;;;0.00;0.00;;;20.00;47.00;;;;;;5012630;28;20221;-45
2023/10/01 13:15:33;;;;;;;0.10;0.10;;;20.00;47.10;;;;;;5012973;28;20197;-46
2023/10/01 13:18:11;;;;;;;0.00;0.00;;;20.00;47.00;;;;;;5012098;28;20631;-45
2023/10/01 13:20:48;;;;;;;0.03;0.03;;;20.00;47.00;;;;;;5012139;28;20210;-46
2023/10/01 13:23:24;;;;;;;0.00;0.00;;;20.00;47.00;;;;;;5011986;28;20250;-45
2023/10/01 13:26:09;;;;;;;0.00;0.00;;;19.90;47.00;;;;;;5012177;28;20565;-45
2023/10/01 13:28:46;;;;;;;0.00;0.00;;;19.90;47.00;;;;;;5012280;28;20204;-45
2023/10/01 13:34:21;;;;;;;0.00;0.00;;;20.00;47.10;;;;;;5012126;28;20695;-45
2023/10/01 13:37:12;;;;;;;0.00;0.00;;;19.90;47.00;;;;;;5012338;28;20224;-45
2023/10/01 13:39:52;;;;;;;0.00;0.00;;;20.00;47.10;;;;;;5012025;28;20196;-47
2023/10/01 14:10:20;;;;;;;0.00;0.00;;;19.90;47.10;;;;;;5011505;28;20247;-46
2023/10/01 14:13:00;;;;;;;0.03;0.03;;;19.90;47.10;;;;;;5011726;28;20220;-45
2023/10/01 14:15:32;;;;;;;0.10;0.10;;;19.90;47.20;;;;;;5011888;28;20204;-45
2023/10/01 14:18:08;;;;;;;0.00;0.00;;;19.90;47.20;;;;;;5011607;28;20201;-47
2023/10/01 14:20:46;;;;;;;0.00;0.00;;;19.90;47.30;;;;;;5011723;28;20236;-48
2023/10/01 14:23:39;;;;;;;0.00;0.00;;;19.90;47.30;;;;;;5011739;28;20761;-46
2023/10/01 14:26:13;;;;;;;0.10;0.10;;;19.90;47.30;;;;;;5011191;28;20193;-47
2023/10/01 14:28:46;;;;;;;0.00;0.00;;;19.90;47.30;;;;;;5011153;28;20200;-46
2023/10/01 14:31:41;;;;;;;0.00;0.00;;;19.90;47.30;;;;;;5011564;28;20197;-46
2023/10/01 14:34:11;;;;;;;0.00;0.00;;;19.90;47.30;;;;;;5011674;28;20319;-45
2023/10/01 14:36:42;;;;;;;0.10;0.10;;;19.90;47.20;;;;;;5011802;28;20201;-45
2023/10/01 14:39:14;;;;;;;0.00;0.00;;;19.90;47.30;;;;;;5011562;28;20677;-45
2023/10/01 14:41:45;;;;;;;0.05;0.05;;;19.90;47.30;;;;;;5008639;28;20227;-45
2023/10/01 14:44:24;;;;;;;0.00;0.00;;;19.90;47.30;;;;;;5010636;28;20683;-46
2023/10/01 14:46:57;;;;;;;0.00;0.00;;;19.90;47.30;;;;;;5010689;28;20223;-47